Aegean Princess — ZDID9 — position and weather

sailwx.info

Track history (hours):
 
Tides and Currents Weather Stations Pressure Air Temp Water Temp Dewpoint Dewpoint Depression Visibility Wind Speed Wind Dir Waves Ship Positions

Aegean Princess

Last reported at 2015-May-03 18:21 UTC. Time now 2015-May-05 01:10 UTC.
Position N 35°59' W 005°28'.

Length 100 m; draft 5 m.

Type: Ship. MMSI: 236111476.

Date/timePositionNaut miles runAvg speedWind from/ knotsBaromVisibWave heightAir tempDewpointWater temp
2015-May-03 18:21N 35°59' W 005°28'4 5.6
2015-May-03 17:34N 36°02' W 005°23'6 5.7
2015-May-03 16:31N 36°08' W 005°22'0 0.0
2015-May-03 15:31N 36°08' W 005°22'0 0.0
2015-May-03 14:31N 36°08' W 005°22'0 0.0
2015-May-03 13:31N 36°08' W 005°22'0 0.0
2015-May-03 12:19N 36°08' W 005°22'0 0.0
2015-May-03 11:31N 36°08' W 005°22'0 0.2
2015-May-03 10:31N 36°07' W 005°22'0 0.2
2015-May-03 09:31N 36°07' W 005°22'1 1.4
2015-May-03 08:33N 36°08' W 005°22'0 0.0
2015-May-03 07:32N 36°08' W 005°22'0 0.1
2015-May-03 06:26N 36°09' W 005°22'0 0.1
2015-May-03 05:32N 36°09' W 005°22'0 0.0
2015-May-03 04:29N 36°09' W 005°22'0 0.1
2015-May-03 03:29N 36°09' W 005°22'0 0.0
2015-May-03 02:20N 36°09' W 005°22'0 0.1
2015-May-03 01:14N 36°08' W 005°22'0 0.0
2015-May-03 00:31N 36°08' W 005°22'1 0.7
2015-May-02 23:31N 36°09' W 005°22'0 0.0
2015-May-02 21:30N 36°09' W 005°22'0 0.0
2015-May-02 20:33N 36°09' W 005°22'1 0.5
2015-May-02 19:33N 36°09' W 005°22'0 0.0
2015-May-02 18:30N 36°09' W 005°22'0 0.2
2015-May-02 17:30N 36°09' W 005°22'0 0.0
2015-May-02 16:33N 36°09' W 005°22'0 0.0
2015-May-02 15:33N 36°09' W 005°22'2 1.6
2015-May-02 14:33N 36°07' W 005°22'3 2.5
2015-May-02 13:32N 36°07' W 005°19'0 0.0
2015-May-02 12:32N 36°07' W 005°19'0 0.1
2015-May-02 11:32N 36°07' W 005°19'0 0.0
2015-May-02 10:32N 36°07' W 005°19'0 0.0
2015-May-02 09:32N 36°07' W 005°19'2 2.1
2015-May-02 08:33N 36°05' W 005°21'1 1.4
2015-May-02 07:31N 36°07' W 005°21'0 0.0
2015-May-02 06:31N 36°07' W 005°21'0 0.0
2015-May-02 05:31N 36°07' W 005°21'0 0.0
2015-May-02 04:31N 36°07' W 005°21'0 0.0
2015-May-02 03:25N 36°07' W 005°21'0 0.1
2015-May-02 02:31N 36°07' W 005°21'0 0.0
2015-May-02 00:31N 36°07' W 005°21'0 0.0
2015-May-01 23:31N 36°07' W 005°21'0 0.1
2015-May-01 22:33N 36°07' W 005°21'3 2.4
2015-May-01 21:25N 36°09' W 005°22'0 0.0
2015-May-01 20:31N 36°09' W 005°22'0 0.1
2015-May-01 19:31N 36°09' W 005°22'0 0.0
2015-May-01 18:28N 36°09' W 005°22'0 0.1
2015-May-01 17:31N 36°09' W 005°22'0 0.0
2015-May-01 16:31N 36°09' W 005°22'0 0.0
2015-May-01 15:28N 36°09' W 005°22'0 0.0
2015-May-01 14:31N 36°09' W 005°22'0 0.0
2015-May-01 13:31N 36°09' W 005°22'0 0.0
2015-May-01 12:13N 36°09' W 005°22'0 0.1
2015-May-01 11:28N 36°09' W 005°22'0 0.0
2015-May-01 10:31N 36°09' W 005°22'0 0.0
2015-May-01 09:31N 36°09' W 005°22'0 0.0
2015-May-01 08:31N 36°09' W 005°22'0 0.0
2015-May-01 07:19N 36°09' W 005°22'0 0.0
2015-May-01 06:13N 36°09' W 005°22'1 1.1
2015-May-01 05:33N 36°09' W 005°22'0 0.2
2015-May-01 04:29N 36°08' W 005°22'0 0.1
2015-May-01 03:32N 36°09' W 005°22'0 0.0
2015-May-01 01:32N 36°09' W 005°22'0 0.1
2015-May-01 00:33N 36°09' W 005°22'1 0.4
2015-Apr-30 22:20N 36°09' W 005°22'0 0.1
2015-Apr-30 21:32N 36°09' W 005°22'0 0.0
2015-Apr-30 20:32N 36°09' W 005°22'0 0.0
2015-Apr-30 19:29N 36°09' W 005°22'0 0.1
2015-Apr-30 18:32N 36°09' W 005°22'0 0.0
2015-Apr-30 17:32N 36°09' W 005°22'1 1.4
2015-Apr-30 16:34N 36°08' W 005°22'2 1.4
2015-Apr-30 15:28N 36°07' W 005°21'0 0.0
2015-Apr-30 14:31N 36°07' W 005°21'0 0.0
2015-Apr-30 13:21N 36°07' W 005°21'2 2.3
2015-Apr-30 12:31N 36°09' W 005°22'0 0.1
2015-Apr-30 11:31N 36°09' W 005°22'0 0.1
2015-Apr-30 09:22N 36°08' W 005°22'0 0.0
2015-Apr-30 08:31N 36°08' W 005°22'0 0.1
2015-Apr-30 07:33N 36°08' W 005°22'1 0.4
2015-Apr-30 05:23N 36°09' W 005°23'0 0.0
2015-Apr-30 04:29N 36°09' W 005°23'0 0.0
2015-Apr-30 00:23N 36°09' W 005°23'0 0.0
2015-Apr-29 23:26N 36°09' W 005°23'0 0.0
2015-Apr-29 20:18N 36°09' W 005°23'1 0.7
2015-Apr-29 19:29N 36°09' W 005°22'0 0.0
2015-Apr-29 18:32N 36°09' W 005°22'0 0.0
2015-Apr-29 17:29N 36°09' W 005°22'0 0.1
2015-Apr-29 16:29N 36°09' W 005°22'0 0.0
2015-Apr-29 15:32N 36°09' W 005°22'1 0.6
2015-Apr-29 14:29N 36°08' W 005°22'0 0.1
2015-Apr-29 12:32N 36°08' W 005°22'0 0.0
2015-Apr-29 11:20N 36°08' W 005°22'0 0.0
2015-Apr-29 10:29N 36°08' W 005°22'0 0.0
2015-Apr-29 09:32N 36°08' W 005°22'0 0.1
2015-Apr-29 08:17N 36°08' W 005°22'0 0.1
2015-Apr-29 07:33N 36°08' W 005°22'1 0.3
2015-Apr-29 03:27N 36°09' W 005°22'0 0.0
2015-Apr-29 01:21N 36°09' W 005°22'0 0.0
2015-Apr-28 22:34N 36°09' W 005°22'1 1.2
2015-Apr-28 21:31N 36°08' W 005°22'0 0.0
2015-Apr-28 20:28N 36°08' W 005°22'0 0.1
2015-Apr-28 19:31N 36°08' W 005°22'0 0.1
2015-Apr-28 18:13N 36°08' W 005°22'0 0.0
2015-Apr-28 17:33N 36°08' W 005°22'0 0.1
2015-Apr-28 16:15N 36°08' W 005°22'0 0.1
2015-Apr-28 15:33N 36°08' W 005°22'0 0.0
2015-Apr-28 14:33N 36°08' W 005°22'0 0.0
2015-Apr-28 13:33N 36°08' W 005°22'0 0.0
2015-Apr-28 12:33N 36°08' W 005°22'0 0.0
2015-Apr-28 11:06N 36°08' W 005°22'0 0.0
2015-Apr-28 10:31N 36°08' W 005°22'3 3.2
2015-Apr-28 09:33N 36°06' W 005°19'1 0.6
2015-Apr-28 08:32N 36°07' W 005°19'0 0.0
2015-Apr-28 07:20N 36°07' W 005°19'0 0.0
2015-Apr-28 06:29N 36°07' W 005°19'0 0.1
2015-Apr-28 04:19N 36°07' W 005°18'0 0.0
2015-Apr-28 03:31N 36°07' W 005°18'0 0.0
2015-Apr-28 02:31N 36°07' W 005°18'0 0.1
2015-Apr-28 01:33N 36°07' W 005°18'2 2.5
2015-Apr-28 00:32N 36°07' W 005°22'0 0.0
2015-Apr-27 23:26N 36°07' W 005°22'0 0.0
2015-Apr-27 22:32N 36°07' W 005°22'0 0.0
2015-Apr-27 21:32N 36°07' W 005°22'0 0.0
2015-Apr-27 20:33N 36°07' W 005°22'4 4.5
2015-Apr-27 19:34N 36°03' W 005°21'7 0.3
2015-Apr-26 17:29N 35°59' W 005°28'5 5.5
2015-Apr-26 16:33N 36°02' W 005°23'7 6.6
2015-Apr-26 15:33N 36°07' W 005°19'0 0.3
2015-Apr-26 14:31N 36°08' W 005°18'0 0.0
2015-Apr-26 13:31N 36°08' W 005°18'0 0.0
2015-Apr-26 12:31N 36°08' W 005°18'0 0.0
2015-Apr-26 11:25N 36°08' W 005°18'2 1.9
2015-Apr-26 10:33N 36°06' W 005°19'2 1.9
2015-Apr-26 09:23N 36°07' W 005°22'0 0.0
2015-Apr-26 08:08N 36°07' W 005°22'0 0.0
2015-Apr-26 07:32N 36°07' W 005°22'0 0.0
2015-Apr-26 06:29N 36°07' W 005°22'0 0.0
2015-Apr-26 05:23N 36°07' W 005°22'0 0.0
2015-Apr-26 04:32N 36°07' W 005°22'0 0.0
2015-Apr-26 03:20N 36°07' W 005°22'0 0.1
2015-Apr-26 02:05N 36°07' W 005°22'0 0.1
2015-Apr-26 01:32N 36°07' W 005°22'0 0.0
2015-Apr-26 00:32N 36°07' W 005°22'0 0.0
2015-Apr-25 23:32N 36°07' W 005°22'0 0.0
2015-Apr-25 22:32N 36°07' W 005°22'0 0.0
2015-Apr-25 21:33N 36°07' W 005°22'2 2.2
2015-Apr-25 20:30N 36°09' W 005°23'0 0.3
2015-Apr-25 19:24N 36°09' W 005°23'0 0.1
2015-Apr-25 18:30N 36°09' W 005°23'0 0.1
2015-Apr-25 16:18N 36°09' W 005°23'0 0.0
2015-Apr-25 15:24N 36°09' W 005°23'0 0.0
2015-Apr-25 14:33N 36°09' W 005°23'0 0.0
2015-Apr-25 13:33N 36°09' W 005°23'0 0.0
2015-Apr-25 12:30N 36°09' W 005°23'0 0.0
2015-Apr-25 11:27N 36°09' W 005°23'0 0.0
2015-Apr-24 23:34N 36°09' W 005°23'0 0.4
2015-Apr-24 22:29N 36°09' W 005°22'0 0.0
2015-Apr-24 21:32N 36°09' W 005°22'0 0.1
2015-Apr-24 20:29N 36°09' W 005°22'0 0.1
2015-Apr-24 18:29N 36°09' W 005°22'0 0.0
2015-Apr-24 17:32N 36°09' W 005°22'0 0.0
2015-Apr-24 16:11N 36°09' W 005°22'0 0.0
2015-Apr-24 15:33N 36°09' W 005°22'1 0.3
2015-Apr-24 13:32N 36°09' W 005°22'0 0.1
2015-Apr-24 12:32N 36°09' W 005°22'0 0.1
2015-Apr-24 11:32N 36°09' W 005°23'0 0.0
2015-Apr-24 08:23N 36°09' W 005°23'0 0.0
2015-Apr-24 06:32N 36°09' W 005°23'0 0.0
2015-Apr-24 05:05N 36°09' W 005°23'0 0.0
2015-Apr-24 04:20N 36°09' W 005°23'0 0.0
2015-Apr-24 03:32N 36°09' W 005°22'0 0.0
2015-Apr-24 00:32N 36°09' W 005°22'0 0.0
2015-Apr-23 23:32N 36°09' W 005°23'0 0.0
2015-Apr-23 22:32N 36°09' W 005°23'0 0.1
2015-Apr-23 21:29N 36°09' W 005°22'0 0.0
2015-Apr-23 20:32N 36°09' W 005°22'0 0.0
2015-Apr-23 19:32N 36°09' W 005°22'  
Track history (hours):
 
Tides and Currents Weather Stations Pressure Air Temp Water Temp Dewpoint Dewpoint Depression Visibility Wind Speed Wind Dir Waves Ship Positions

Aegean Princess

Last reported at 2015-May-03 18:21 UTC. Time now 2015-May-05 01:10 UTC.
Position N 35°59' W 005°28'.

Length 100 m; draft 5 m.

Type: Ship. MMSI: 236111476.

Date/timePositionNaut miles runAvg speedWind from/ knotsBaromVisibWave heightAir tempDewpointWater temp
2015-May-03 18:21N 35°59' W 005°28'4 5.6
2015-May-03 17:34N 36°02' W 005°23'6 5.7
2015-May-03 16:31N 36°08' W 005°22'0 0.0
2015-May-03 15:31N 36°08' W 005°22'0 0.0
2015-May-03 14:31N 36°08' W 005°22'0 0.0
2015-May-03 13:31N 36°08' W 005°22'0 0.0
2015-May-03 12:19N 36°08' W 005°22'0 0.0
2015-May-03 11:31N 36°08' W 005°22'0 0.2
2015-May-03 10:31N 36°07' W 005°22'0 0.2
2015-May-03 09:31N 36°07' W 005°22'1 1.4
2015-May-03 08:33N 36°08' W 005°22'0 0.0
2015-May-03 07:32N 36°08' W 005°22'0 0.1
2015-May-03 06:26N 36°09' W 005°22'0 0.1
2015-May-03 05:32N 36°09' W 005°22'0 0.0
2015-May-03 04:29N 36°09' W 005°22'0 0.1
2015-May-03 03:29N 36°09' W 005°22'0 0.0
2015-May-03 02:20N 36°09' W 005°22'0 0.1
2015-May-03 01:14N 36°08' W 005°22'0 0.0
2015-May-03 00:31N 36°08' W 005°22'1 0.7
2015-May-02 23:31N 36°09' W 005°22'0 0.0
2015-May-02 21:30N 36°09' W 005°22'0 0.0
2015-May-02 20:33N 36°09' W 005°22'1 0.5
2015-May-02 19:33N 36°09' W 005°22'0 0.0
2015-May-02 18:30N 36°09' W 005°22'0 0.2
2015-May-02 17:30N 36°09' W 005°22'0 0.0
2015-May-02 16:33N 36°09' W 005°22'0 0.0
2015-May-02 15:33N 36°09' W 005°22'2 1.6
2015-May-02 14:33N 36°07' W 005°22'3 2.5
2015-May-02 13:32N 36°07' W 005°19'0 0.0
2015-May-02 12:32N 36°07' W 005°19'0 0.1
2015-May-02 11:32N 36°07' W 005°19'0 0.0
2015-May-02 10:32N 36°07' W 005°19'0 0.0
2015-May-02 09:32N 36°07' W 005°19'2 2.1
2015-May-02 08:33N 36°05' W 005°21'1 1.4
2015-May-02 07:31N 36°07' W 005°21'0 0.0
2015-May-02 06:31N 36°07' W 005°21'0 0.0
2015-May-02 05:31N 36°07' W 005°21'0 0.0
2015-May-02 04:31N 36°07' W 005°21'0 0.0
2015-May-02 03:25N 36°07' W 005°21'0 0.1
2015-May-02 02:31N 36°07' W 005°21'0 0.0
2015-May-02 00:31N 36°07' W 005°21'0 0.0
2015-May-01 23:31N 36°07' W 005°21'0 0.1
2015-May-01 22:33N 36°07' W 005°21'3 2.4
2015-May-01 21:25N 36°09' W 005°22'0 0.0
2015-May-01 20:31N 36°09' W 005°22'0 0.1
2015-May-01 19:31N 36°09' W 005°22'0 0.0
2015-May-01 18:28N 36°09' W 005°22'0 0.1
2015-May-01 17:31N 36°09' W 005°22'0 0.0
2015-May-01 16:31N 36°09' W 005°22'0 0.0
2015-May-01 15:28N 36°09' W 005°22'0 0.0
2015-May-01 14:31N 36°09' W 005°22'0 0.0
2015-May-01 13:31N 36°09' W 005°22'0 0.0
2015-May-01 12:13N 36°09' W 005°22'0 0.1
2015-May-01 11:28N 36°09' W 005°22'0 0.0
2015-May-01 10:31N 36°09' W 005°22'0 0.0
2015-May-01 09:31N 36°09' W 005°22'0 0.0
2015-May-01 08:31N 36°09' W 005°22'0 0.0
2015-May-01 07:19N 36°09' W 005°22'0 0.0
2015-May-01 06:13N 36°09' W 005°22'1 1.1
2015-May-01 05:33N 36°09' W 005°22'0 0.2
2015-May-01 04:29N 36°08' W 005°22'0 0.1
2015-May-01 03:32N 36°09' W 005°22'0 0.0
2015-May-01 01:32N 36°09' W 005°22'0 0.1
2015-May-01 00:33N 36°09' W 005°22'1 0.4
2015-Apr-30 22:20N 36°09' W 005°22'0 0.1
2015-Apr-30 21:32N 36°09' W 005°22'0 0.0
2015-Apr-30 20:32N 36°09' W 005°22'0 0.0
2015-Apr-30 19:29N 36°09' W 005°22'0 0.1
2015-Apr-30 18:32N 36°09' W 005°22'0 0.0
2015-Apr-30 17:32N 36°09' W 005°22'1 1.4
2015-Apr-30 16:34N 36°08' W 005°22'2 1.4
2015-Apr-30 15:28N 36°07' W 005°21'0 0.0
2015-Apr-30 14:31N 36°07' W 005°21'0 0.0
2015-Apr-30 13:21N 36°07' W 005°21'2 2.3
2015-Apr-30 12:31N 36°09' W 005°22'0 0.1
2015-Apr-30 11:31N 36°09' W 005°22'0 0.1
2015-Apr-30 09:22N 36°08' W 005°22'0 0.0
2015-Apr-30 08:31N 36°08' W 005°22'0 0.1
2015-Apr-30 07:33N 36°08' W 005°22'1 0.4
2015-Apr-30 05:23N 36°09' W 005°23'0 0.0
2015-Apr-30 04:29N 36°09' W 005°23'0 0.0
2015-Apr-30 00:23N 36°09' W 005°23'0 0.0
2015-Apr-29 23:26N 36°09' W 005°23'0 0.0
2015-Apr-29 20:18N 36°09' W 005°23'1 0.7
2015-Apr-29 19:29N 36°09' W 005°22'0 0.0
2015-Apr-29 18:32N 36°09' W 005°22'0 0.0
2015-Apr-29 17:29N 36°09' W 005°22'0 0.1
2015-Apr-29 16:29N 36°09' W 005°22'0 0.0
2015-Apr-29 15:32N 36°09' W 005°22'1 0.6
2015-Apr-29 14:29N 36°08' W 005°22'0 0.1
2015-Apr-29 12:32N 36°08' W 005°22'0 0.0
2015-Apr-29 11:20N 36°08' W 005°22'0 0.0
2015-Apr-29 10:29N 36°08' W 005°22'0 0.0
2015-Apr-29 09:32N 36°08' W 005°22'0 0.1
2015-Apr-29 08:17N 36°08' W 005°22'0 0.1
2015-Apr-29 07:33N 36°08' W 005°22'1 0.3
2015-Apr-29 03:27N 36°09' W 005°22'0 0.0
2015-Apr-29 01:21N 36°09' W 005°22'0 0.0
2015-Apr-28 22:34N 36°09' W 005°22'1 1.2
2015-Apr-28 21:31N 36°08' W 005°22'0 0.0
2015-Apr-28 20:28N 36°08' W 005°22'0 0.1
2015-Apr-28 19:31N 36°08' W 005°22'0 0.1
2015-Apr-28 18:13N 36°08' W 005°22'0 0.0
2015-Apr-28 17:33N 36°08' W 005°22'0 0.1
2015-Apr-28 16:15N 36°08' W 005°22'0 0.1
2015-Apr-28 15:33N 36°08' W 005°22'0 0.0
2015-Apr-28 14:33N 36°08' W 005°22'0 0.0
2015-Apr-28 13:33N 36°08' W 005°22'0 0.0
2015-Apr-28 12:33N 36°08' W 005°22'0 0.0
2015-Apr-28 11:06N 36°08' W 005°22'0 0.0
2015-Apr-28 10:31N 36°08' W 005°22'3 3.2
2015-Apr-28 09:33N 36°06' W 005°19'1 0.6
2015-Apr-28 08:32N 36°07' W 005°19'0 0.0
2015-Apr-28 07:20N 36°07' W 005°19'0 0.0
2015-Apr-28 06:29N 36°07' W 005°19'0 0.1
2015-Apr-28 04:19N 36°07' W 005°18'0 0.0
2015-Apr-28 03:31N 36°07' W 005°18'0 0.0
2015-Apr-28 02:31N 36°07' W 005°18'0 0.1
2015-Apr-28 01:33N 36°07' W 005°18'2 2.5
2015-Apr-28 00:32N 36°07' W 005°22'0 0.0
2015-Apr-27 23:26N 36°07' W 005°22'0 0.0
2015-Apr-27 22:32N 36°07' W 005°22'0 0.0
2015-Apr-27 21:32N 36°07' W 005°22'0 0.0
2015-Apr-27 20:33N 36°07' W 005°22'4 4.5
2015-Apr-27 19:34N 36°03' W 005°21'7 0.3
2015-Apr-26 17:29N 35°59' W 005°28'5 5.5
2015-Apr-26 16:33N 36°02' W 005°23'7 6.6
2015-Apr-26 15:33N 36°07' W 005°19'0 0.3
2015-Apr-26 14:31N 36°08' W 005°18'0 0.0
2015-Apr-26 13:31N 36°08' W 005°18'0 0.0
2015-Apr-26 12:31N 36°08' W 005°18'0 0.0
2015-Apr-26 11:25N 36°08' W 005°18'2 1.9
2015-Apr-26 10:33N 36°06' W 005°19'2 1.9
2015-Apr-26 09:23N 36°07' W 005°22'0 0.0
2015-Apr-26 08:08N 36°07' W 005°22'0 0.0
2015-Apr-26 07:32N 36°07' W 005°22'0 0.0
2015-Apr-26 06:29N 36°07' W 005°22'0 0.0
2015-Apr-26 05:23N 36°07' W 005°22'0 0.0
2015-Apr-26 04:32N 36°07' W 005°22'0 0.0
2015-Apr-26 03:20N 36°07' W 005°22'0 0.1
2015-Apr-26 02:05N 36°07' W 005°22'0 0.1
2015-Apr-26 01:32N 36°07' W 005°22'0 0.0
2015-Apr-26 00:32N 36°07' W 005°22'0 0.0
2015-Apr-25 23:32N 36°07' W 005°22'0 0.0
2015-Apr-25 22:32N 36°07' W 005°22'0 0.0
2015-Apr-25 21:33N 36°07' W 005°22'2 2.2
2015-Apr-25 20:30N 36°09' W 005°23'0 0.3
2015-Apr-25 19:24N 36°09' W 005°23'0 0.1
2015-Apr-25 18:30N 36°09' W 005°23'0 0.1
2015-Apr-25 16:18N 36°09' W 005°23'0 0.0
2015-Apr-25 15:24N 36°09' W 005°23'0 0.0
2015-Apr-25 14:33N 36°09' W 005°23'0 0.0
2015-Apr-25 13:33N 36°09' W 005°23'0 0.0
2015-Apr-25 12:30N 36°09' W 005°23'0 0.0
2015-Apr-25 11:27N 36°09' W 005°23'0 0.0
2015-Apr-24 23:34N 36°09' W 005°23'0 0.4
2015-Apr-24 22:29N 36°09' W 005°22'0 0.0
2015-Apr-24 21:32N 36°09' W 005°22'0 0.1
2015-Apr-24 20:29N 36°09' W 005°22'0 0.1
2015-Apr-24 18:29N 36°09' W 005°22'0 0.0
2015-Apr-24 17:32N 36°09' W 005°22'0 0.0
2015-Apr-24 16:11N 36°09' W 005°22'0 0.0
2015-Apr-24 15:33N 36°09' W 005°22'1 0.3
2015-Apr-24 13:32N 36°09' W 005°22'0 0.1
2015-Apr-24 12:32N 36°09' W 005°22'0 0.1
2015-Apr-24 11:32N 36°09' W 005°23'0 0.0
2015-Apr-24 08:23N 36°09' W 005°23'0 0.0
2015-Apr-24 06:32N 36°09' W 005°23'0 0.0
2015-Apr-24 05:05N 36°09' W 005°23'0 0.0
2015-Apr-24 04:20N 36°09' W 005°23'0 0.0
2015-Apr-24 03:32N 36°09' W 005°22'0 0.0
2015-Apr-24 00:32N 36°09' W 005°22'0 0.0
2015-Apr-23 23:32N 36°09' W 005°23'0 0.0
2015-Apr-23 22:32N 36°09' W 005°23'0 0.1
2015-Apr-23 21:29N 36°09' W 005°22'0 0.0
2015-Apr-23 20:32N 36°09' W 005°22'0 0.0
2015-Apr-23 19:32N 36°09' W 005°22'  

Dump ship's entire track history